createdAt,value
2022-12-27T00:00:46.657Z,7.61
2022-12-27T00:01:46.599Z,7.55
2022-12-27T00:02:46.644Z,7.55
2022-12-27T00:03:46.625Z,7.43
2022-12-27T00:04:46.601Z,7.52
2022-12-27T00:05:46.596Z,7.46
2022-12-27T00:06:46.595Z,7.46
2022-12-27T00:07:46.578Z,7.45
2022-12-27T00:08:46.552Z,7.45
2022-12-27T00:09:46.568Z,7.43
2022-12-27T00:10:46.568Z,7.46
2022-12-27T00:11:46.544Z,7.40
2022-12-27T00:12:46.602Z,7.35
2022-12-27T00:13:46.600Z,7.34
2022-12-27T00:14:46.593Z,7.30
2022-12-27T00:15:46.594Z,7.40
2022-12-27T00:16:46.607Z,7.27
2022-12-27T00:17:46.528Z,7.24
2022-12-27T00:18:46.534Z,7.32
2022-12-27T00:19:46.516Z,7.31
2022-12-27T00:20:46.554Z,7.39
2022-12-27T00:21:46.591Z,7.28
2022-12-27T00:22:46.626Z,7.21
2022-12-27T00:23:46.515Z,7.28
2022-12-27T00:24:46.633Z,7.13
2022-12-27T00:25:46.566Z,7.09
2022-12-27T00:26:46.584Z,7.12
2022-12-27T00:27:46.526Z,7.16
2022-12-27T00:28:46.529Z,7.20
2022-12-27T00:29:46.503Z,7.20
2022-12-27T00:30:46.639Z,7.15
2022-12-27T00:31:46.543Z,7.17
2022-12-27T00:32:46.514Z,7.05
2022-12-27T00:33:46.540Z,7.05
2022-12-27T00:34:46.555Z,7.02
2022-12-27T00:35:46.556Z,6.97
2022-12-27T00:36:46.501Z,7.06
2022-12-27T00:37:46.488Z,6.99
2022-12-27T00:38:46.494Z,6.99
2022-12-27T00:39:46.472Z,6.97
2022-12-27T00:40:46.482Z,7.03
2022-12-27T00:41:46.465Z,7.06
2022-12-27T00:42:46.512Z,6.97
2022-12-27T00:43:46.493Z,6.94
2022-12-27T00:44:46.452Z,6.95
2022-12-27T00:45:46.483Z,6.97
2022-12-27T00:46:46.442Z,6.94
2022-12-27T00:47:46.464Z,6.88
2022-12-27T00:48:46.450Z,6.79
2022-12-27T00:49:46.466Z,6.66
2022-12-27T00:50:46.449Z,6.69
2022-12-27T00:51:46.496Z,6.69
2022-12-27T00:52:46.539Z,6.58
2022-12-27T00:53:46.477Z,6.62
2022-12-27T00:54:46.525Z,6.55
2022-12-27T00:55:46.451Z,6.54
2022-12-27T00:56:46.479Z,6.55
2022-12-27T00:57:46.572Z,6.55
2022-12-27T00:58:46.484Z,6.52
2022-12-27T00:59:46.458Z,6.44
2022-12-27T01:00:46.654Z,6.44
2022-12-27T01:01:46.579Z,6.43
2022-12-27T01:02:46.478Z,6.46
2022-12-27T01:03:46.517Z,6.59
2022-12-27T01:04:46.480Z,6.46
2022-12-27T01:05:46.522Z,6.34
2022-12-27T01:06:46.430Z,6.38
2022-12-27T01:07:46.444Z,6.37
2022-12-27T01:08:47.334Z,6.33
2022-12-27T01:09:46.433Z,6.28
2022-12-27T01:10:46.501Z,6.30
2022-12-27T01:11:46.467Z,6.27
2022-12-27T01:12:46.476Z,6.31
2022-12-27T01:13:46.525Z,6.31
2022-12-27T01:14:46.485Z,6.28
2022-12-27T01:15:46.479Z,6.25
2022-12-27T01:16:46.416Z,6.31
2022-12-27T01:17:46.477Z,6.22
2022-12-27T01:18:46.359Z,6.25
2022-12-27T01:19:46.350Z,6.18
2022-12-27T01:20:46.353Z,6.18
2022-12-27T01:21:46.373Z,6.22
2022-12-27T01:22:46.369Z,6.15
2022-12-27T01:23:46.343Z,6.14
2022-12-27T01:24:46.361Z,6.14
2022-12-27T01:25:46.332Z,6.14
2022-12-27T01:26:46.333Z,6.12
2022-12-27T01:27:46.344Z,6.11
2022-12-27T01:28:46.359Z,6.09
2022-12-27T01:29:46.332Z,6.19
2022-12-27T01:30:46.317Z,6.08
2022-12-27T01:31:46.356Z,6.06
2022-12-27T01:32:46.337Z,6.11
2022-12-27T01:33:46.315Z,6.06
2022-12-27T01:34:46.316Z,6.11
2022-12-27T01:35:46.298Z,6.03
2022-12-27T01:36:46.297Z,6.12
2022-12-27T01:37:46.321Z,6.06
2022-12-27T01:38:46.333Z,6.09
2022-12-27T01:39:46.299Z,6.03
2022-12-27T01:40:46.298Z,6.06
2022-12-27T01:41:46.291Z,6.04
2022-12-27T01:42:46.290Z,6.01
2022-12-27T01:43:46.313Z,6.11
2022-12-27T01:44:46.272Z,6.06
2022-12-27T01:45:46.292Z,6.00
2022-12-27T01:46:46.274Z,6.01
2022-12-27T01:47:46.277Z,6.00
2022-12-27T01:48:46.285Z,6.04
2022-12-27T01:49:46.282Z,5.91
2022-12-27T01:50:46.265Z,5.96
2022-12-27T01:51:46.305Z,6.00
2022-12-27T01:52:46.274Z,5.91
2022-12-27T01:53:46.297Z,5.94
2022-12-27T01:54:46.279Z,5.90
2022-12-27T01:55:46.328Z,5.89
2022-12-27T01:56:46.333Z,5.90
2022-12-27T01:57:46.248Z,5.83
2022-12-27T01:58:46.247Z,5.83
2022-12-27T01:59:46.270Z,5.83
2022-12-27T02:00:46.357Z,5.83
2022-12-27T02:01:46.421Z,5.83
2022-12-27T02:02:46.373Z,5.82
2022-12-27T02:03:46.264Z,5.79
2022-12-27T02:04:46.263Z,5.81
2022-12-27T02:05:46.247Z,5.83
2022-12-27T02:06:46.229Z,5.78
2022-12-27T02:07:46.201Z,5.85
2022-12-27T02:08:46.222Z,5.81
2022-12-27T02:09:46.210Z,5.82
2022-12-27T02:10:46.232Z,5.78
2022-12-27T02:11:46.229Z,5.78
2022-12-27T02:12:46.203Z,5.78
2022-12-27T02:13:46.230Z,5.74
2022-12-27T02:14:46.219Z,5.67
2022-12-27T02:15:46.184Z,5.75
2022-12-27T02:16:46.257Z,5.72
2022-12-27T02:17:46.192Z,5.72
2022-12-27T02:18:46.209Z,5.65
2022-12-27T02:19:46.209Z,5.64
2022-12-27T02:20:46.200Z,5.68
2022-12-27T02:21:46.203Z,5.65
2022-12-27T02:22:46.218Z,5.68
2022-12-27T02:23:46.177Z,5.72
2022-12-27T02:24:46.206Z,5.72
2022-12-27T02:25:46.143Z,5.72
2022-12-27T02:26:46.150Z,5.72
2022-12-27T02:27:46.149Z,5.67
2022-12-27T02:28:46.161Z,5.71
2022-12-27T02:29:46.172Z,5.71
2022-12-27T02:30:46.210Z,5.64
2022-12-27T02:31:57.491Z,5.61
2022-12-27T02:32:46.147Z,5.58
2022-12-27T02:33:46.166Z,5.67
2022-12-27T02:36:42.932Z,5.48
2022-12-27T02:37:42.954Z,5.51
2022-12-27T02:38:42.918Z,5.49
2022-12-27T02:39:42.909Z,5.49
2022-12-27T02:40:42.902Z,5.38
2022-12-27T02:41:42.931Z,5.39
2022-12-27T02:42:42.923Z,5.42
2022-12-27T02:43:42.893Z,5.43
2022-12-27T02:44:42.906Z,5.42
2022-12-27T02:45:43.007Z,5.33
2022-12-27T02:46:42.929Z,5.36
2022-12-27T02:47:42.886Z,5.24
2022-12-27T02:48:42.909Z,5.22
2022-12-27T02:49:42.899Z,5.25
2022-12-27T02:50:42.906Z,5.17
2022-12-27T02:51:42.892Z,5.15
2022-12-27T02:52:42.929Z,5.09
2022-12-27T02:53:42.915Z,5.02
2022-12-27T02:54:42.878Z,5.00
2022-12-27T02:55:42.876Z,4.99
2022-12-27T02:56:42.853Z,4.99
2022-12-27T02:57:42.894Z,4.96
2022-12-27T02:58:42.857Z,4.94
2022-12-27T02:59:42.872Z,4.85
2022-12-27T03:00:42.848Z,4.91
2022-12-27T03:01:42.928Z,4.84
2022-12-27T03:02:42.923Z,4.80
2022-12-27T03:05:16.654Z,4.78
2022-12-27T03:06:15.986Z,4.92
2022-12-27T03:07:15.933Z,4.84
2022-12-27T03:08:15.926Z,4.88
2022-12-27T03:09:15.995Z,4.85
2022-12-27T03:10:15.917Z,4.82
2022-12-27T03:11:15.930Z,4.86
2022-12-27T03:12:15.931Z,4.92
2022-12-27T03:13:15.923Z,4.82
2022-12-27T03:14:15.953Z,4.96
2022-12-27T03:15:15.918Z,4.89
2022-12-27T03:16:16.012Z,4.92
2022-12-27T03:17:15.916Z,4.92
2022-12-27T03:18:15.904Z,4.80
2022-12-27T03:19:15.911Z,4.80
2022-12-27T03:20:15.892Z,4.78
2022-12-27T03:21:15.920Z,4.86
2022-12-27T03:22:15.924Z,4.89
2022-12-27T03:23:15.909Z,4.84
2022-12-27T03:24:15.910Z,4.84
2022-12-27T03:25:15.891Z,4.82
2022-12-27T03:26:15.899Z,4.84
2022-12-27T03:27:15.869Z,4.86
2022-12-27T03:28:15.869Z,4.86
2022-12-27T03:29:15.875Z,4.80
2022-12-27T03:30:15.888Z,4.72
2022-12-27T03:31:15.913Z,4.84
2022-12-27T03:32:15.899Z,4.70
2022-12-27T03:33:15.841Z,4.77
2022-12-27T03:34:15.858Z,4.77
2022-12-27T03:35:15.869Z,4.82
2022-12-27T03:36:15.859Z,4.89
2022-12-27T03:37:15.836Z,4.84
2022-12-27T03:38:15.887Z,4.85
2022-12-27T03:39:15.857Z,4.84
2022-12-27T03:40:15.920Z,4.86
2022-12-27T03:41:15.843Z,4.84
2022-12-27T03:42:15.863Z,4.84
2022-12-27T03:43:15.843Z,4.73
2022-12-27T03:44:15.950Z,4.84
2022-12-27T03:45:15.835Z,4.73
2022-12-27T03:46:15.823Z,4.77
2022-12-27T03:47:15.816Z,4.69
2022-12-27T03:48:15.890Z,4.72
2022-12-27T03:49:15.818Z,4.75
2022-12-27T03:50:15.840Z,4.59
2022-12-27T03:51:15.851Z,4.69
2022-12-27T03:52:15.827Z,4.72
2022-12-27T03:53:16.068Z,4.60
2022-12-27T03:54:15.800Z,4.63
2022-12-27T03:55:15.819Z,4.62
2022-12-27T03:56:15.814Z,4.67
2022-12-27T03:57:15.751Z,4.65
2022-12-27T03:58:15.787Z,4.58
2022-12-27T03:59:15.769Z,4.70
2022-12-27T04:00:15.794Z,4.75
2022-12-27T04:01:15.907Z,4.70
2022-12-27T04:02:15.857Z,4.70
2022-12-27T04:03:15.822Z,4.78
2022-12-27T04:04:15.784Z,4.67
2022-12-27T04:05:15.782Z,4.67
2022-12-27T04:06:15.782Z,4.66
2022-12-27T04:07:15.763Z,4.73
2022-12-27T04:08:15.774Z,4.75
2022-12-27T04:09:15.773Z,4.67
2022-12-27T04:10:15.716Z,4.78
2022-12-27T04:11:15.751Z,4.84
2022-12-27T04:12:15.731Z,4.78
2022-12-27T04:13:15.779Z,4.72
2022-12-27T04:14:15.734Z,4.80
2022-12-27T04:15:15.699Z,4.75
2022-12-27T04:16:15.768Z,4.75
2022-12-27T04:17:15.709Z,4.78
2022-12-27T04:18:15.690Z,4.75
2022-12-27T04:19:15.903Z,4.80
2022-12-27T04:20:15.935Z,4.84
2022-12-27T04:21:15.720Z,4.82
2022-12-27T04:22:15.844Z,4.86
2022-12-27T04:23:16.023Z,4.85
2022-12-27T04:24:15.761Z,4.80
2022-12-27T04:25:15.730Z,4.77
2022-12-27T04:26:15.833Z,4.86
2022-12-27T04:27:15.711Z,4.88
2022-12-27T04:28:15.912Z,4.84
2022-12-27T04:29:15.779Z,4.78
2022-12-27T04:30:15.792Z,4.85
2022-12-27T04:31:15.992Z,4.84
2022-12-27T04:32:15.708Z,4.80
2022-12-27T04:33:15.865Z,4.78
2022-12-27T04:34:15.635Z,4.86
2022-12-27T04:35:16.011Z,4.88
2022-12-27T04:36:15.727Z,4.86
2022-12-27T04:37:15.621Z,4.84
2022-12-27T04:38:15.666Z,4.84
2022-12-27T04:39:15.655Z,4.84
2022-12-27T04:40:16.030Z,4.82
2022-12-27T04:41:23.611Z,4.89
2022-12-27T04:42:15.582Z,4.94
2022-12-27T04:43:15.579Z,4.84
2022-12-27T04:44:15.573Z,4.89
2022-12-27T04:45:15.787Z,4.88
2022-12-27T04:46:15.620Z,4.84
2022-12-27T04:47:15.573Z,4.89
2022-12-27T04:48:15.548Z,4.94
2022-12-27T04:49:15.550Z,4.91
2022-12-27T04:50:15.554Z,4.94
2022-12-27T04:51:15.547Z,4.99
2022-12-27T04:52:15.547Z,4.99
2022-12-27T04:53:15.529Z,5.02
2022-12-27T04:54:15.580Z,5.04
2022-12-27T04:55:15.523Z,4.99
2022-12-27T04:56:15.536Z,4.92
2022-12-27T04:57:15.518Z,5.02
2022-12-27T04:58:15.529Z,4.89
2022-12-27T04:59:15.520Z,4.91
2022-12-27T05:00:15.519Z,4.85
2022-12-27T05:01:15.610Z,4.84
2022-12-27T05:02:15.612Z,4.94
2022-12-27T05:03:15.616Z,4.80
2022-12-27T05:04:15.520Z,4.89
2022-12-27T05:05:15.481Z,4.82
2022-12-27T05:06:15.488Z,4.86
2022-12-27T05:07:15.481Z,4.80
2022-12-27T05:08:15.493Z,4.82
2022-12-27T05:09:20.014Z,4.80
2022-12-27T05:10:15.490Z,4.78
2022-12-27T05:11:15.474Z,4.70
2022-12-27T05:12:15.466Z,4.69
2022-12-27T05:13:15.454Z,4.67
2022-12-27T05:14:15.447Z,4.85
2022-12-27T05:15:15.457Z,4.75
2022-12-27T05:16:15.501Z,4.84
2022-12-27T05:17:15.448Z,4.85
2022-12-27T05:18:15.456Z,4.73
2022-12-27T05:19:15.493Z,4.70
2022-12-27T05:20:15.472Z,4.85
2022-12-27T05:21:15.424Z,4.84
2022-12-27T05:22:15.425Z,4.89
2022-12-27T05:23:15.442Z,4.78
2022-12-27T05:24:15.431Z,4.78
2022-12-27T05:25:15.457Z,4.86
2022-12-27T05:26:15.435Z,4.91
2022-12-27T05:27:15.407Z,4.77
2022-12-27T05:28:15.407Z,4.86
2022-12-27T05:29:15.426Z,4.78
2022-12-27T05:30:15.404Z,4.86
2022-12-27T05:31:15.449Z,4.86
2022-12-27T05:32:15.403Z,4.85
2022-12-27T05:33:15.405Z,4.85
2022-12-27T05:34:15.391Z,4.70
2022-12-27T05:35:15.375Z,4.72
2022-12-27T05:36:15.413Z,4.69
2022-12-27T05:37:15.379Z,4.63
2022-12-27T05:38:15.381Z,4.63
2022-12-27T05:39:15.367Z,4.60
2022-12-27T05:40:15.361Z,4.63
2022-12-27T05:41:15.375Z,4.54
2022-12-27T05:42:15.362Z,4.48
2022-12-27T05:43:15.340Z,4.50
2022-12-27T05:44:15.330Z,4.48
2022-12-27T05:45:15.335Z,4.50
2022-12-27T05:46:15.451Z,4.45
2022-12-27T05:47:15.371Z,4.47
2022-12-27T05:48:15.332Z,4.52
2022-12-27T05:49:15.335Z,4.52
2022-12-27T05:50:15.314Z,4.55
2022-12-27T05:51:15.311Z,4.55
2022-12-27T05:52:15.308Z,4.60
2022-12-27T05:53:15.334Z,4.55
2022-12-27T05:54:15.294Z,4.54
2022-12-27T05:55:15.300Z,4.52
2022-12-27T05:56:15.327Z,4.66
2022-12-27T05:57:15.287Z,4.51
2022-12-27T05:58:15.333Z,4.54
2022-12-27T05:59:15.280Z,4.52
2022-12-27T06:00:15.261Z,4.52
2022-12-27T06:01:15.410Z,4.54
2022-12-27T06:02:15.406Z,4.66
2022-12-27T06:03:15.323Z,4.54
2022-12-27T06:04:15.278Z,4.52
2022-12-27T06:05:15.277Z,4.50
2022-12-27T06:06:15.255Z,4.54
2022-12-27T06:07:15.238Z,4.44
2022-12-27T06:08:15.295Z,4.48
2022-12-27T06:09:15.240Z,4.44
2022-12-27T06:10:15.252Z,4.52
2022-12-27T06:11:15.258Z,4.41
2022-12-27T06:12:15.219Z,4.44
2022-12-27T06:13:15.240Z,4.51
2022-12-27T06:14:15.234Z,4.48
2022-12-27T06:15:15.219Z,4.50
2022-12-27T06:16:15.239Z,4.50
2022-12-27T06:17:15.221Z,4.50
2022-12-27T06:18:15.191Z,4.45
2022-12-27T06:19:15.224Z,4.47
2022-12-27T06:20:15.204Z,4.40
2022-12-27T06:21:15.189Z,4.41
2022-12-27T06:22:15.195Z,4.48
2022-12-27T06:23:15.190Z,4.45
2022-12-27T06:24:15.239Z,4.47
2022-12-27T06:25:15.184Z,4.48
2022-12-27T06:26:15.182Z,4.47
2022-12-27T06:27:15.171Z,4.47
2022-12-27T06:28:15.195Z,4.44
2022-12-27T06:29:15.233Z,4.36
2022-12-27T06:30:15.191Z,4.33
2022-12-27T06:31:15.254Z,4.44
2022-12-27T06:32:15.130Z,4.37
2022-12-27T06:33:15.133Z,4.47
2022-12-27T06:34:15.132Z,4.36
2022-12-27T06:35:15.122Z,4.44
2022-12-27T06:36:15.132Z,4.47
2022-12-27T06:37:15.152Z,4.48
2022-12-27T06:38:15.141Z,4.50
2022-12-27T06:39:15.138Z,4.44
2022-12-27T06:40:23.674Z,4.44
2022-12-27T06:41:23.248Z,4.34
2022-12-27T06:42:22.680Z,4.44
2022-12-27T06:43:15.097Z,4.34
2022-12-27T06:44:24.250Z,4.34
2022-12-27T06:45:15.089Z,4.40
2022-12-27T06:46:17.566Z,4.42
2022-12-27T06:47:15.086Z,4.47
2022-12-27T06:48:15.108Z,4.34
2022-12-27T06:49:15.071Z,4.45
2022-12-27T06:50:15.084Z,4.50
2022-12-27T06:51:15.080Z,4.48
2022-12-27T06:52:15.304Z,4.45
2022-12-27T06:53:15.072Z,4.42
2022-12-27T06:54:15.037Z,4.48
2022-12-27T06:55:15.078Z,4.48
2022-12-27T06:56:15.052Z,4.50
2022-12-27T06:57:15.045Z,4.44
2022-12-27T06:58:15.027Z,4.47
2022-12-27T06:59:15.051Z,4.41
2022-12-27T07:00:15.063Z,4.50
2022-12-27T07:01:15.183Z,4.40
2022-12-27T07:02:15.243Z,4.34
2022-12-27T07:03:15.333Z,4.48
2022-12-27T07:04:15.083Z,4.42
2022-12-27T07:05:15.037Z,4.42
2022-12-27T07:06:14.992Z,4.44
2022-12-27T07:07:15.939Z,4.37
2022-12-27T07:08:15.013Z,4.45
2022-12-27T07:09:14.988Z,4.45
2022-12-27T07:10:15.280Z,4.48
2022-12-27T07:11:14.986Z,4.48
2022-12-27T07:12:14.970Z,4.51
2022-12-27T07:13:14.983Z,4.52
2022-12-27T07:14:14.969Z,4.59
2022-12-27T07:15:15.014Z,4.63
2022-12-27T07:16:15.003Z,4.59
2022-12-27T07:17:14.968Z,4.72
2022-12-27T07:18:14.961Z,4.66
2022-12-27T07:19:14.956Z,4.67
2022-12-27T07:20:14.950Z,4.62
2022-12-27T07:21:14.938Z,4.54
2022-12-27T07:22:14.940Z,4.58
2022-12-27T07:23:19.262Z,4.67
2022-12-27T07:24:14.920Z,4.55
2022-12-27T07:25:14.909Z,4.67
2022-12-27T07:26:14.923Z,4.67
2022-12-27T07:27:14.928Z,4.70
2022-12-27T07:28:14.906Z,4.62
2022-12-27T07:31:13.106Z,4.63
2022-12-27T07:31:58.126Z,4.55
2022-12-27T07:32:58.126Z,4.65
2022-12-27T07:33:58.113Z,4.55
2022-12-27T07:34:58.102Z,4.66
2022-12-27T07:35:58.132Z,4.69
2022-12-27T07:36:58.105Z,4.63
2022-12-27T07:37:58.092Z,4.73
2022-12-27T07:38:58.077Z,4.63
2022-12-27T07:39:58.068Z,4.77
2022-12-27T07:40:58.059Z,4.77
2022-12-27T07:42:01.858Z,4.73
2022-12-27T07:42:58.105Z,4.67
2022-12-27T07:43:58.052Z,4.72
2022-12-27T07:44:58.065Z,4.51
2022-12-27T07:45:58.077Z,4.69
2022-12-27T07:46:58.045Z,4.66
2022-12-27T07:47:58.035Z,4.59
2022-12-27T07:48:58.088Z,4.51
2022-12-27T07:49:58.052Z,4.67
2022-12-27T07:50:58.053Z,4.63
2022-12-27T07:51:58.777Z,4.72
2022-12-27T07:52:58.026Z,4.85
2022-12-27T07:53:58.017Z,4.94
2022-12-27T07:54:58.046Z,4.85
2022-12-27T07:55:58.147Z,4.94
2022-12-27T07:56:58.097Z,5.02
2022-12-27T07:57:58.027Z,5.02
2022-12-27T07:58:57.984Z,5.02
2022-12-27T07:59:57.994Z,4.96
2022-12-27T08:00:58.140Z,4.92
2022-12-27T08:01:58.121Z,4.84
2022-12-27T08:02:58.067Z,4.85
2022-12-27T08:03:58.041Z,4.78
2022-12-27T08:04:57.977Z,4.85
2022-12-27T08:05:57.977Z,4.84
2022-12-27T08:06:58.002Z,4.78
2022-12-27T08:07:58.022Z,4.91
2022-12-27T08:08:57.961Z,4.89
2022-12-27T08:09:57.949Z,4.92
2022-12-27T08:11:02.137Z,4.91
2022-12-27T08:11:57.959Z,4.91
2022-12-27T08:12:57.949Z,4.82
2022-12-27T08:13:57.960Z,4.88
2022-12-27T08:14:57.956Z,4.80
2022-12-27T08:15:57.996Z,4.82
2022-12-27T08:16:57.962Z,4.84
2022-12-27T08:17:57.946Z,4.86
2022-12-27T08:19:01.950Z,4.82
2022-12-27T08:19:57.954Z,4.89
2022-12-27T08:20:57.913Z,4.97
2022-12-27T08:21:57.917Z,5.02
2022-12-27T08:22:57.912Z,5.04
2022-12-27T08:23:57.900Z,5.06
2022-12-27T08:24:57.944Z,5.15
2022-12-27T08:25:57.881Z,5.10
2022-12-27T08:26:57.889Z,5.17
2022-12-27T08:27:57.901Z,5.18
2022-12-27T08:28:57.936Z,5.13
2022-12-27T08:29:57.875Z,5.22
2022-12-27T08:30:57.917Z,5.27
2022-12-27T08:31:57.889Z,5.35
2022-12-27T08:32:57.899Z,5.40
2022-12-27T08:33:58.786Z,5.38
2022-12-27T08:35:12.059Z,5.58
2022-12-27T08:35:57.905Z,5.57
2022-12-27T08:36:57.848Z,5.58
2022-12-27T08:37:58.034Z,5.68
2022-12-27T08:38:58.722Z,5.67
2022-12-27T08:40:02.679Z,5.67
2022-12-27T08:40:57.870Z,5.76
2022-12-27T08:41:57.826Z,5.89
2022-12-27T08:42:57.811Z,5.78
2022-12-27T08:43:57.871Z,5.82
2022-12-27T08:44:57.833Z,5.79
2022-12-27T08:45:57.869Z,5.91
2022-12-27T08:46:57.840Z,6.01
2022-12-27T08:47:59.235Z,6.01
2022-12-27T08:48:58.673Z,5.94
2022-12-27T08:49:57.798Z,5.99
2022-12-27T08:50:57.799Z,6.00
2022-12-27T08:51:58.604Z,6.03
2022-12-27T08:52:57.790Z,6.04
2022-12-27T08:53:57.804Z,6.03
2022-12-27T08:54:57.816Z,6.17
2022-12-27T08:55:57.782Z,6.11
2022-12-27T08:56:57.777Z,6.11
2022-12-27T08:57:57.797Z,6.14
2022-12-27T08:58:57.800Z,6.12
2022-12-27T08:59:57.768Z,6.14
2022-12-27T09:00:58.047Z,6.11
2022-12-27T09:01:57.895Z,6.22
2022-12-27T09:02:57.815Z,6.27
2022-12-27T09:03:57.769Z,6.21
2022-12-27T09:04:57.749Z,6.25
2022-12-27T09:05:57.738Z,6.28
2022-12-27T09:06:57.738Z,6.31
2022-12-27T09:07:57.744Z,6.33
2022-12-27T09:08:57.805Z,6.38
2022-12-27T09:09:57.733Z,6.38
2022-12-27T09:10:57.718Z,6.61
2022-12-27T09:11:57.731Z,6.66
2022-12-27T09:12:57.727Z,6.74
2022-12-27T09:13:57.716Z,6.98
2022-12-27T09:14:57.747Z,7.28
2022-12-27T09:15:57.794Z,7.69
2022-12-27T09:16:57.719Z,7.57
2022-12-27T09:17:57.708Z,7.43
2022-12-27T09:18:57.721Z,7.27
2022-12-27T09:19:57.718Z,7.12
2022-12-27T09:20:57.684Z,7.07
2022-12-27T09:21:57.679Z,6.99
2022-12-27T09:22:57.691Z,6.97
2022-12-27T09:23:57.694Z,6.81
2022-12-27T09:24:57.785Z,6.98
2022-12-27T09:25:57.673Z,7.07
2022-12-27T09:26:57.670Z,7.40
2022-12-27T09:27:57.679Z,7.32
2022-12-27T09:28:57.672Z,7.77
2022-12-27T09:29:57.709Z,8.05
2022-12-27T09:30:57.725Z,8.25
2022-12-27T09:31:57.657Z,8.01
2022-12-27T09:32:57.666Z,8.37
2022-12-27T09:33:57.643Z,8.52
2022-12-27T09:34:57.686Z,8.53
2022-12-27T09:35:57.650Z,8.12
2022-12-27T09:36:57.661Z,7.80
2022-12-27T09:37:57.642Z,7.64
2022-12-27T09:38:57.655Z,7.69
2022-12-27T09:39:57.639Z,7.60
2022-12-27T09:40:57.653Z,7.58
2022-12-27T09:43:12.533Z,7.74
2022-12-27T09:43:57.616Z,7.60
2022-12-27T09:44:57.623Z,7.64
2022-12-27T09:45:57.673Z,7.58
2022-12-27T09:46:57.669Z,7.50
2022-12-27T09:47:57.611Z,7.60
2022-12-27T09:48:57.615Z,7.58
2022-12-27T09:49:57.607Z,7.57
2022-12-27T09:50:57.611Z,7.60
2022-12-27T09:51:57.624Z,7.75
2022-12-27T09:52:57.656Z,7.92
2022-12-27T09:53:57.596Z,7.98
2022-12-27T09:55:02.630Z,8.44
2022-12-27T09:55:57.587Z,8.66
2022-12-27T09:57:21.035Z,8.87
2022-12-27T09:57:57.642Z,9.10
2022-12-27T09:58:57.609Z,9.32
2022-12-27T09:59:57.693Z,9.56
2022-12-27T10:00:58.312Z,9.54
2022-12-27T10:01:57.670Z,9.65
2022-12-27T10:02:57.577Z,9.35
2022-12-27T10:03:57.601Z,9.35
2022-12-27T10:05:23.625Z,9.21
2022-12-27T10:05:57.639Z,9.38
2022-12-27T10:06:57.563Z,9.58
2022-12-27T10:07:57.581Z,9.79
2022-12-27T10:08:57.587Z,9.69
2022-12-27T10:09:57.553Z,9.50
2022-12-27T10:10:57.567Z,9.46
2022-12-27T10:11:57.539Z,9.48
2022-12-27T10:12:57.541Z,9.50
2022-12-27T10:13:57.553Z,9.48
2022-12-27T10:14:57.565Z,9.51
2022-12-27T10:15:57.576Z,9.66
2022-12-27T10:16:57.545Z,9.50
2022-12-27T10:17:57.542Z,9.66
2022-12-27T10:18:57.551Z,9.90
2022-12-27T10:19:57.565Z,10.18
2022-12-27T10:20:57.525Z,10.42
2022-12-27T10:21:57.531Z,10.73
2022-12-27T10:23:01.441Z,11.03
2022-12-27T10:23:57.522Z,10.94
2022-12-27T10:24:57.515Z,10.81
2022-12-27T10:25:57.527Z,10.64
2022-12-27T10:26:57.509Z,10.84
2022-12-27T10:27:57.512Z,10.86
2022-12-27T10:28:57.681Z,10.85
2022-12-27T10:29:57.547Z,10.85
2022-12-27T10:30:57.534Z,10.82
2022-12-27T10:31:57.493Z,10.61
2022-12-27T10:32:57.505Z,10.44
2022-12-27T10:33:57.526Z,10.29
2022-12-27T10:34:57.489Z,10.17
2022-12-27T10:35:57.574Z,9.96
2022-12-27T10:36:57.488Z,9.61
2022-12-27T10:37:57.500Z,9.42
2022-12-27T10:38:57.483Z,9.36
2022-12-27T10:39:57.533Z,9.24
2022-12-27T10:40:57.514Z,9.14
2022-12-27T10:42:05.744Z,9.28
2022-12-27T10:42:57.490Z,8.98
2022-12-27T10:43:57.512Z,8.81
2022-12-27T10:44:57.467Z,8.86
2022-12-27T10:45:57.489Z,8.86
2022-12-27T10:46:57.584Z,8.84
2022-12-27T10:47:57.478Z,8.74
2022-12-27T10:49:21.004Z,8.79
2022-12-27T10:49:57.453Z,8.76
2022-12-27T10:50:57.500Z,8.61
2022-12-27T10:51:57.463Z,8.63
2022-12-27T10:52:57.816Z,8.63
2022-12-27T10:53:57.459Z,8.73
2022-12-27T10:54:57.440Z,8.77
2022-12-27T10:55:57.443Z,8.74
2022-12-27T10:56:57.468Z,8.74
2022-12-27T10:57:57.440Z,8.86
2022-12-27T10:58:59.215Z,8.91
2022-12-27T10:59:57.436Z,8.76
2022-12-27T11:00:57.524Z,8.76
2022-12-27T11:01:57.515Z,8.79
2022-12-27T11:02:57.490Z,8.87
2022-12-27T11:03:57.447Z,8.94
2022-12-27T11:04:57.450Z,8.89
2022-12-27T11:05:57.485Z,8.91
2022-12-27T11:06:57.426Z,8.87
2022-12-27T11:07:57.439Z,8.76
2022-12-27T11:08:57.410Z,8.79
2022-12-27T11:09:57.415Z,8.68
2022-12-27T11:10:57.405Z,8.61
2022-12-27T11:11:57.404Z,8.59
2022-12-27T11:12:57.444Z,8.45
2022-12-27T11:13:57.409Z,8.36
2022-12-27T11:14:57.413Z,8.33
2022-12-27T11:15:59.053Z,8.30
2022-12-27T11:16:58.166Z,8.20
2022-12-27T11:17:57.416Z,8.20
2022-12-27T11:18:57.435Z,8.16
2022-12-27T11:19:57.395Z,8.08
2022-12-27T11:20:57.395Z,8.02
2022-12-27T11:21:57.404Z,8.04
2022-12-27T11:22:57.401Z,8.00
2022-12-27T11:23:57.507Z,7.97
2022-12-27T11:24:58.168Z,7.95
2022-12-27T11:25:57.431Z,7.80
2022-12-27T11:26:57.416Z,7.85
2022-12-27T11:27:57.423Z,7.82
2022-12-27T11:28:57.408Z,7.80
2022-12-27T11:29:57.418Z,7.79
2022-12-27T11:30:57.372Z,7.72
2022-12-27T11:31:57.384Z,7.82
2022-12-27T11:32:57.382Z,7.75
2022-12-27T11:33:57.414Z,7.72
2022-12-27T11:34:57.358Z,7.75
2022-12-27T11:35:57.393Z,7.72
2022-12-27T11:36:57.349Z,7.72
2022-12-27T11:37:57.351Z,7.68
2022-12-27T11:38:57.405Z,7.72
2022-12-27T11:39:57.356Z,7.79
2022-12-27T11:40:57.374Z,7.83
2022-12-27T11:41:57.348Z,7.77
2022-12-27T11:42:57.340Z,7.83
2022-12-27T11:43:57.379Z,7.77
2022-12-27T11:44:57.327Z,8.00
2022-12-27T11:45:57.367Z,8.02
2022-12-27T11:46:59.441Z,8.10
2022-12-27T11:47:57.323Z,8.12
2022-12-27T11:48:57.345Z,8.16
2022-12-27T11:49:57.427Z,8.12
2022-12-27T11:50:58.713Z,8.19
2022-12-27T11:51:58.961Z,8.15
2022-12-27T11:52:59.182Z,8.18
2022-12-27T11:54:00.700Z,8.22
2022-12-27T11:54:59.197Z,8.30
2022-12-27T11:55:58.278Z,8.40
2022-12-27T11:56:57.355Z,8.61
2022-12-27T11:58:01.670Z,8.76
2022-12-27T11:58:57.284Z,8.74
2022-12-27T11:59:57.294Z,8.71
2022-12-27T12:01:03.657Z,8.83
2022-12-27T12:01:57.436Z,8.87
2022-12-27T12:02:57.435Z,8.92
2022-12-27T12:03:57.316Z,9.02
2022-12-27T12:04:57.315Z,8.98
2022-12-27T12:05:57.275Z,8.96
2022-12-27T12:06:57.267Z,8.81
2022-12-27T12:07:57.268Z,8.77
2022-12-27T12:08:57.268Z,8.70
2022-12-27T12:09:57.283Z,8.62
2022-12-27T12:10:57.268Z,8.61
2022-12-27T12:11:57.259Z,8.52
2022-12-27T12:12:57.252Z,8.52
2022-12-27T12:13:57.246Z,8.43
2022-12-27T12:14:57.267Z,8.52
2022-12-27T12:15:57.261Z,8.47
2022-12-27T12:16:57.380Z,8.40
2022-12-27T12:17:57.240Z,8.44
2022-12-27T12:18:57.232Z,8.33
2022-12-27T12:19:57.268Z,8.40
2022-12-27T12:20:57.266Z,8.38
2022-12-27T12:21:57.282Z,8.22
2022-12-27T12:22:57.221Z,8.20
2022-12-27T12:23:57.220Z,8.28
2022-12-27T12:24:58.177Z,8.37
2022-12-27T12:25:57.269Z,8.34
2022-12-27T12:26:57.295Z,8.37
2022-12-27T12:27:57.245Z,8.43
2022-12-27T12:28:59.102Z,8.48
2022-12-27T12:29:57.214Z,8.55
2022-12-27T12:30:57.210Z,8.41
2022-12-27T12:31:57.281Z,8.47
2022-12-27T12:32:57.214Z,8.56
2022-12-27T12:33:57.204Z,8.58
2022-12-27T12:34:57.193Z,8.59
2022-12-27T12:35:57.207Z,8.61
2022-12-27T12:36:57.237Z,8.59
2022-12-27T12:37:57.180Z,8.55
2022-12-27T12:38:57.207Z,8.47
2022-12-27T12:39:57.189Z,8.47
2022-12-27T12:40:57.189Z,8.53
2022-12-27T12:41:57.187Z,8.44
2022-12-27T12:42:57.202Z,8.55
2022-12-27T12:43:57.345Z,8.50
2022-12-27T12:44:57.180Z,8.50
2022-12-27T12:45:57.208Z,8.52
2022-12-27T12:46:57.184Z,8.52
2022-12-27T12:47:57.154Z,8.52
2022-12-27T12:48:57.222Z,8.55
2022-12-27T12:49:57.175Z,8.50
2022-12-27T12:50:57.183Z,8.50
2022-12-27T12:51:57.202Z,8.47
2022-12-27T12:52:57.168Z,8.58
2022-12-27T12:53:57.146Z,8.56
2022-12-27T12:54:57.153Z,8.70
2022-12-27T12:55:57.173Z,8.84
2022-12-27T12:56:57.147Z,8.92
2022-12-27T12:57:57.131Z,8.89
2022-12-27T12:58:57.131Z,8.96
2022-12-27T12:59:57.140Z,8.96
2022-12-27T13:00:57.215Z,8.98
2022-12-27T13:01:57.339Z,8.92
2022-12-27T13:02:57.190Z,8.95
2022-12-27T13:03:57.128Z,8.96
2022-12-27T13:04:57.196Z,8.83
2022-12-27T13:05:57.115Z,8.87
2022-12-27T13:06:57.145Z,8.83
2022-12-27T13:07:57.142Z,8.86
2022-12-27T13:08:57.151Z,8.74
2022-12-27T13:09:57.114Z,8.79
2022-12-27T13:10:57.113Z,8.77
2022-12-27T13:11:57.159Z,8.87
2022-12-27T13:12:57.098Z,8.95
2022-12-27T13:13:57.121Z,8.81
2022-12-27T13:14:57.106Z,8.92
2022-12-27T13:15:57.115Z,8.87
2022-12-27T13:16:57.109Z,8.76
2022-12-27T13:17:57.115Z,8.77
2022-12-27T13:18:57.124Z,8.79
2022-12-27T13:19:57.111Z,8.77
2022-12-27T13:20:57.078Z,8.74
2022-12-27T13:21:57.164Z,8.87
2022-12-27T13:22:57.076Z,8.86
2022-12-27T13:23:57.258Z,8.98